sensor_id;sensor_type;location;lat;lon;timestamp;P1;durP1;ratioP1;P2;durP2;ratioP2
21305;SDS011;10812;51.838;5.838;2022-08-06T00:02:19;6.63;;;2.30;;
21305;SDS011;10812;51.838;5.838;2022-08-06T00:04:54;6.13;;;2.20;;
21305;SDS011;10812;51.838;5.838;2022-08-06T00:07:23;5.07;;;1.80;;
21305;SDS011;10812;51.838;5.838;2022-08-06T00:09:54;7.30;;;2.33;;
21305;SDS011;10812;51.838;5.838;2022-08-06T00:12:28;4.33;;;2.03;;
21305;SDS011;10812;51.838;5.838;2022-08-06T00:15:01;4.10;;;1.37;;
21305;SDS011;10812;51.838;5.838;2022-08-06T00:17:40;4.70;;;1.73;;
21305;SDS011;10812;51.838;5.838;2022-08-06T00:20:09;6.60;;;2.30;;
21305;SDS011;10812;51.838;5.838;2022-08-06T00:22:56;6.00;;;1.57;;
21305;SDS011;10812;51.838;5.838;2022-08-06T00:25:26;7.40;;;1.93;;
21305;SDS011;10812;51.838;5.838;2022-08-06T00:28:15;4.00;;;1.67;;
21305;SDS011;10812;51.838;5.838;2022-08-06T00:30:46;3.33;;;1.67;;
21305;SDS011;10812;51.838;5.838;2022-08-06T00:33:15;2.90;;;1.43;;
21305;SDS011;10812;51.838;5.838;2022-08-06T00:35:43;6.37;;;1.23;;
21305;SDS011;10812;51.838;5.838;2022-08-06T00:38:12;3.73;;;1.80;;
21305;SDS011;10812;51.838;5.838;2022-08-06T00:40:40;3.17;;;1.53;;
21305;SDS011;10812;51.838;5.838;2022-08-06T00:43:24;4.33;;;1.70;;
21305;SDS011;10812;51.838;5.838;2022-08-06T00:46:05;5.33;;;1.30;;
21305;SDS011;10812;51.838;5.838;2022-08-06T00:48:43;7.10;;;1.43;;
21305;SDS011;10812;51.838;5.838;2022-08-06T00:51:19;4.00;;;1.57;;
21305;SDS011;10812;51.838;5.838;2022-08-06T00:53:47;4.70;;;1.80;;
21305;SDS011;10812;51.838;5.838;2022-08-06T00:56:23;3.73;;;1.30;;
21305;SDS011;10812;51.838;5.838;2022-08-06T00:58:54;1.90;;;1.63;;
21305;SDS011;10812;51.838;5.838;2022-08-06T01:01:29;4.67;;;1.77;;
21305;SDS011;10812;51.838;5.838;2022-08-06T01:04:16;4.53;;;1.70;;
21305;SDS011;10812;51.838;5.838;2022-08-06T01:06:45;7.03;;;1.80;;
21305;SDS011;10812;51.838;5.838;2022-08-06T01:09:23;3.23;;;1.67;;
21305;SDS011;10812;51.838;5.838;2022-08-06T01:11:52;4.30;;;1.67;;
21305;SDS011;10812;51.838;5.838;2022-08-06T01:14:25;7.73;;;1.93;;
21305;SDS011;10812;51.838;5.838;2022-08-06T01:17:06;6.77;;;2.10;;
21305;SDS011;10812;51.838;5.838;2022-08-06T01:19:53;5.90;;;1.70;;
21305;SDS011;10812;51.838;5.838;2022-08-06T01:22:54;5.73;;;2.00;;
21305;SDS011;10812;51.838;5.838;2022-08-06T01:28:47;4.93;;;2.13;;
21305;SDS011;10812;51.838;5.838;2022-08-06T01:31:23;5.73;;;1.97;;
21305;SDS011;10812;51.838;5.838;2022-08-06T01:34:05;2.47;;;1.53;;
21305;SDS011;10812;51.838;5.838;2022-08-06T01:36:39;3.40;;;2.17;;
21305;SDS011;10812;51.838;5.838;2022-08-06T01:39:14;2.80;;;1.70;;
21305;SDS011;10812;51.838;5.838;2022-08-06T01:42:05;6.83;;;1.90;;
21305;SDS011;10812;51.838;5.838;2022-08-06T01:44:39;4.37;;;1.57;;
21305;SDS011;10812;51.838;5.838;2022-08-06T01:47:14;3.37;;;1.90;;
21305;SDS011;10812;51.838;5.838;2022-08-06T01:49:47;3.27;;;2.53;;
21305;SDS011;10812;51.838;5.838;2022-08-06T01:52:28;3.37;;;1.80;;
21305;SDS011;10812;51.838;5.838;2022-08-06T01:55:03;3.77;;;2.00;;
21305;SDS011;10812;51.838;5.838;2022-08-06T01:57:40;3.63;;;2.10;;
21305;SDS011;10812;51.838;5.838;2022-08-06T02:00:32;4.30;;;2.07;;
21305;SDS011;10812;51.838;5.838;2022-08-06T02:03:06;4.93;;;1.87;;
21305;SDS011;10812;51.838;5.838;2022-08-06T02:05:47;5.70;;;1.87;;
21305;SDS011;10812;51.838;5.838;2022-08-06T02:08:20;5.07;;;2.30;;
21305;SDS011;10812;51.838;5.838;2022-08-06T02:11:05;5.67;;;2.10;;
21305;SDS011;10812;51.838;5.838;2022-08-06T02:13:57;3.70;;;1.70;;
21305;SDS011;10812;51.838;5.838;2022-08-06T02:16:30;4.47;;;2.13;;
21305;SDS011;10812;51.838;5.838;2022-08-06T02:19:08;3.40;;;1.90;;
21305;SDS011;10812;51.838;5.838;2022-08-06T02:21:42;6.00;;;2.10;;
21305;SDS011;10812;51.838;5.838;2022-08-06T02:24:18;8.20;;;2.37;;
21305;SDS011;10812;51.838;5.838;2022-08-06T02:26:49;4.13;;;1.77;;
21305;SDS011;10812;51.838;5.838;2022-08-06T02:29:18;2.23;;;1.67;;
21305;SDS011;10812;51.838;5.838;2022-08-06T02:31:52;3.93;;;1.83;;
21305;SDS011;10812;51.838;5.838;2022-08-06T02:34:27;3.03;;;2.17;;
21305;SDS011;10812;51.838;5.838;2022-08-06T02:36:57;3.80;;;1.93;;
21305;SDS011;10812;51.838;5.838;2022-08-06T02:39:32;5.40;;;2.20;;
21305;SDS011;10812;51.838;5.838;2022-08-06T02:42:20;3.37;;;2.00;;
21305;SDS011;10812;51.838;5.838;2022-08-06T02:44:57;5.70;;;2.17;;
21305;SDS011;10812;51.838;5.838;2022-08-06T02:47:31;3.50;;;2.27;;
21305;SDS011;10812;51.838;5.838;2022-08-06T02:50:24;3.50;;;2.07;;
21305;SDS011;10812;51.838;5.838;2022-08-06T02:53:03;3.30;;;1.93;;
21305;SDS011;10812;51.838;5.838;2022-08-06T02:55:51;4.43;;;2.50;;
21305;SDS011;10812;51.838;5.838;2022-08-06T02:58:23;4.60;;;2.20;;
21305;SDS011;10812;51.838;5.838;2022-08-06T03:06:28;4.37;;;2.27;;
21305;SDS011;10812;51.838;5.838;2022-08-06T03:09:00;4.10;;;2.07;;
21305;SDS011;10812;51.838;5.838;2022-08-06T03:11:31;5.10;;;2.83;;
21305;SDS011;10812;51.838;5.838;2022-08-06T03:17:32;5.17;;;2.30;;
21305;SDS011;10812;51.838;5.838;2022-08-06T03:20:02;6.67;;;2.53;;
21305;SDS011;10812;51.838;5.838;2022-08-06T03:22:35;9.93;;;2.87;;
21305;SDS011;10812;51.838;5.838;2022-08-06T03:25:10;3.60;;;1.87;;
21305;SDS011;10812;51.838;5.838;2022-08-06T03:27:41;7.40;;;2.87;;
21305;SDS011;10812;51.838;5.838;2022-08-06T03:30:11;7.13;;;2.77;;
21305;SDS011;10812;51.838;5.838;2022-08-06T03:32:59;4.60;;;2.37;;
21305;SDS011;10812;51.838;5.838;2022-08-06T03:35:48;3.63;;;2.40;;
21305;SDS011;10812;51.838;5.838;2022-08-06T03:38:21;6.33;;;2.73;;
21305;SDS011;10812;51.838;5.838;2022-08-06T03:40:55;4.97;;;2.53;;
21305;SDS011;10812;51.838;5.838;2022-08-06T03:43:27;6.67;;;2.27;;
21305;SDS011;10812;51.838;5.838;2022-08-06T03:46:17;4.67;;;2.67;;
21305;SDS011;10812;51.838;5.838;2022-08-06T03:48:52;7.20;;;3.17;;
21305;SDS011;10812;51.838;5.838;2022-08-06T03:51:23;4.13;;;2.37;;
21305;SDS011;10812;51.838;5.838;2022-08-06T03:54:17;4.07;;;3.10;;
21305;SDS011;10812;51.838;5.838;2022-08-06T03:56:59;5.63;;;2.87;;
21305;SDS011;10812;51.838;5.838;2022-08-06T03:59:35;5.13;;;3.27;;
21305;SDS011;10812;51.838;5.838;2022-08-06T04:02:22;6.97;;;2.60;;
21305;SDS011;10812;51.838;5.838;2022-08-06T04:05:11;3.93;;;2.93;;
21305;SDS011;10812;51.838;5.838;2022-08-06T04:11:33;6.83;;;2.83;;
21305;SDS011;10812;51.838;5.838;2022-08-06T04:14:22;8.93;;;2.90;;
21305;SDS011;10812;51.838;5.838;2022-08-06T04:16:53;5.53;;;2.90;;
21305;SDS011;10812;51.838;5.838;2022-08-06T04:19:25;5.90;;;2.97;;
21305;SDS011;10812;51.838;5.838;2022-08-06T04:22:01;4.17;;;2.80;;
21305;SDS011;10812;51.838;5.838;2022-08-06T04:24:49;6.07;;;3.13;;
21305;SDS011;10812;51.838;5.838;2022-08-06T04:27:18;9.60;;;3.03;;
21305;SDS011;10812;51.838;5.838;2022-08-06T04:29:48;4.57;;;2.87;;
21305;SDS011;10812;51.838;5.838;2022-08-06T04:32:25;5.07;;;3.13;;
21305;SDS011;10812;51.838;5.838;2022-08-06T04:34:57;4.03;;;2.47;;
21305;SDS011;10812;51.838;5.838;2022-08-06T04:37:46;3.90;;;2.80;;
21305;SDS011;10812;51.838;5.838;2022-08-06T04:40:19;5.23;;;2.23;;
21305;SDS011;10812;51.838;5.838;2022-08-06T04:43:02;4.80;;;2.47;;
21305;SDS011;10812;51.838;5.838;2022-08-06T04:45:33;4.70;;;2.30;;
21305;SDS011;10812;51.838;5.838;2022-08-06T04:48:23;5.23;;;2.63;;
21305;SDS011;10812;51.838;5.838;2022-08-06T04:51:01;6.03;;;2.73;;
21305;SDS011;10812;51.838;5.838;2022-08-06T04:53:34;4.33;;;2.50;;
21305;SDS011;10812;51.838;5.838;2022-08-06T04:56:23;3.53;;;2.53;;
21305;SDS011;10812;51.838;5.838;2022-08-06T04:58:56;6.47;;;3.13;;
21305;SDS011;10812;51.838;5.838;2022-08-06T05:01:24;4.33;;;2.60;;
21305;SDS011;10812;51.838;5.838;2022-08-06T05:03:53;4.50;;;2.53;;
21305;SDS011;10812;51.838;5.838;2022-08-06T05:06:40;4.10;;;2.80;;
21305;SDS011;10812;51.838;5.838;2022-08-06T05:09:15;4.53;;;2.83;;
21305;SDS011;10812;51.838;5.838;2022-08-06T05:11:54;7.07;;;3.40;;
21305;SDS011;10812;51.838;5.838;2022-08-06T05:14:35;6.27;;;3.47;;
21305;SDS011;10812;51.838;5.838;2022-08-06T05:17:07;5.63;;;3.10;;
21305;SDS011;10812;51.838;5.838;2022-08-06T05:19:41;6.33;;;3.10;;
21305;SDS011;10812;51.838;5.838;2022-08-06T05:22:12;5.17;;;3.17;;
21305;SDS011;10812;51.838;5.838;2022-08-06T05:25:03;6.83;;;3.03;;
21305;SDS011;10812;51.838;5.838;2022-08-06T05:27:41;7.77;;;3.50;;
21305;SDS011;10812;51.838;5.838;2022-08-06T05:30:31;5.90;;;3.00;;
21305;SDS011;10812;51.838;5.838;2022-08-06T05:33:00;6.57;;;3.30;;
21305;SDS011;10812;51.838;5.838;2022-08-06T05:35:32;6.43;;;3.17;;
21305;SDS011;10812;51.838;5.838;2022-08-06T05:38:06;5.40;;;3.23;;
21305;SDS011;10812;51.838;5.838;2022-08-06T05:40:37;6.13;;;3.10;;
21305;SDS011;10812;51.838;5.838;2022-08-06T05:43:22;4.50;;;3.23;;
21305;SDS011;10812;51.838;5.838;2022-08-06T05:46:13;5.90;;;3.50;;
21305;SDS011;10812;51.838;5.838;2022-08-06T05:48:49;5.13;;;2.63;;
21305;SDS011;10812;51.838;5.838;2022-08-06T05:51:26;5.27;;;3.63;;
21305;SDS011;10812;51.838;5.838;2022-08-06T05:54:11;5.97;;;2.70;;
21305;SDS011;10812;51.838;5.838;2022-08-06T05:56:45;3.60;;;3.20;;
21305;SDS011;10812;51.838;5.838;2022-08-06T05:59:20;7.93;;;3.57;;
21305;SDS011;10812;51.838;5.838;2022-08-06T06:02:04;4.90;;;2.97;;
21305;SDS011;10812;51.838;5.838;2022-08-06T06:04:34;4.67;;;2.87;;
21305;SDS011;10812;51.838;5.838;2022-08-06T06:07:11;5.30;;;2.87;;
21305;SDS011;10812;51.838;5.838;2022-08-06T06:10:00;5.40;;;3.00;;
21305;SDS011;10812;51.838;5.838;2022-08-06T06:12:30;5.03;;;2.97;;
21305;SDS011;10812;51.838;5.838;2022-08-06T06:15:00;5.83;;;2.70;;
21305;SDS011;10812;51.838;5.838;2022-08-06T06:18:04;4.20;;;2.13;;
21305;SDS011;10812;51.838;5.838;2022-08-06T06:21:03;3.75;;;1.60;;
21305;SDS011;10812;51.838;5.838;2022-08-06T06:23:48;4.03;;;1.23;;
21305;SDS011;10812;51.838;5.838;2022-08-06T06:26:24;3.08;;;1.48;;
21305;SDS011;10812;51.838;5.838;2022-08-06T06:29:03;4.53;;;1.50;;
21305;SDS011;10812;51.838;5.838;2022-08-06T06:39:21;2.55;;;1.35;;
21305;SDS011;10812;51.838;5.838;2022-08-06T06:42:03;5.15;;;1.50;;
21305;SDS011;10812;51.838;5.838;2022-08-06T06:44:58;3.42;;;1.27;;
21305;SDS011;10812;51.838;5.838;2022-08-06T06:47:55;4.05;;;1.48;;
21305;SDS011;10812;51.838;5.838;2022-08-06T06:50:28;3.35;;;1.30;;
21305;SDS011;10812;51.838;5.838;2022-08-06T06:53:01;5.88;;;1.77;;
21305;SDS011;10812;51.838;5.838;2022-08-06T06:55:37;4.00;;;1.55;;
21305;SDS011;10812;51.838;5.838;2022-08-06T06:58:35;2.35;;;1.30;;
21305;SDS011;10812;51.838;5.838;2022-08-06T07:01:13;3.75;;;1.20;;
21305;SDS011;10812;51.838;5.838;2022-08-06T07:03:54;3.67;;;1.27;;
21305;SDS011;10812;51.838;5.838;2022-08-06T07:06:26;3.38;;;1.27;;
21305;SDS011;10812;51.838;5.838;2022-08-06T07:09:10;2.63;;;1.10;;
21305;SDS011;10812;51.838;5.838;2022-08-06T07:12:04;1.42;;;0.70;;
21305;SDS011;10812;51.838;5.838;2022-08-06T07:14:45;2.90;;;0.90;;
21305;SDS011;10812;51.838;5.838;2022-08-06T07:17:24;3.47;;;1.17;;
21305;SDS011;10812;51.838;5.838;2022-08-06T07:20:13;4.47;;;1.58;;
21305;SDS011;10812;51.838;5.838;2022-08-06T07:22:45;4.22;;;1.30;;
21305;SDS011;10812;51.838;5.838;2022-08-06T07:25:38;1.77;;;0.80;;
21305;SDS011;10812;51.838;5.838;2022-08-06T07:28:22;1.73;;;0.65;;
21305;SDS011;10812;51.838;5.838;2022-08-06T07:30:53;1.85;;;0.80;;
21305;SDS011;10812;51.838;5.838;2022-08-06T07:33:29;1.88;;;0.73;;
21305;SDS011;10812;51.838;5.838;2022-08-06T07:36:20;1.38;;;0.80;;
21305;SDS011;10812;51.838;5.838;2022-08-06T07:38:53;2.35;;;0.95;;
21305;SDS011;10812;51.838;5.838;2022-08-06T07:41:24;2.42;;;1.02;;
21305;SDS011;10812;51.838;5.838;2022-08-06T07:44:16;3.30;;;1.55;;
21305;SDS011;10812;51.838;5.838;2022-08-06T07:46:55;1.75;;;0.73;;
21305;SDS011;10812;51.838;5.838;2022-08-06T07:49:49;2.78;;;0.77;;
21305;SDS011;10812;51.838;5.838;2022-08-06T07:52:26;2.15;;;0.70;;
21305;SDS011;10812;51.838;5.838;2022-08-06T07:54:58;2.60;;;0.55;;
21305;SDS011;10812;51.838;5.838;2022-08-06T07:57:28;2.10;;;0.70;;
21305;SDS011;10812;51.838;5.838;2022-08-06T08:00:20;4.70;;;1.15;;
21305;SDS011;10812;51.838;5.838;2022-08-06T08:02:53;1.65;;;0.65;;
21305;SDS011;10812;51.838;5.838;2022-08-06T08:06:00;2.60;;;1.00;;
21305;SDS011;10812;51.838;5.838;2022-08-06T08:08:52;3.42;;;1.05;;
21305;SDS011;10812;51.838;5.838;2022-08-06T08:11:23;3.72;;;0.85;;
21305;SDS011;10812;51.838;5.838;2022-08-06T08:14:12;1.27;;;0.68;;
21305;SDS011;10812;51.838;5.838;2022-08-06T08:16:46;1.40;;;0.70;;
21305;SDS011;10812;51.838;5.838;2022-08-06T08:19:24;1.95;;;0.73;;
21305;SDS011;10812;51.838;5.838;2022-08-06T08:22:02;5.03;;;0.90;;
21305;SDS011;10812;51.838;5.838;2022-08-06T08:24:35;1.92;;;0.70;;
21305;SDS011;10812;51.838;5.838;2022-08-06T08:27:05;1.40;;;0.65;;
21305;SDS011;10812;51.838;5.838;2022-08-06T08:29:47;1.42;;;0.60;;
21305;SDS011;10812;51.838;5.838;2022-08-06T08:32:23;2.28;;;0.90;;
21305;SDS011;10812;51.838;5.838;2022-08-06T08:34:52;2.03;;;0.70;;
21305;SDS011;10812;51.838;5.838;2022-08-06T08:37:22;1.55;;;0.60;;
21305;SDS011;10812;51.838;5.838;2022-08-06T08:39:51;4.80;;;0.88;;
21305;SDS011;10812;51.838;5.838;2022-08-06T08:42:22;1.67;;;0.50;;
21305;SDS011;10812;51.838;5.838;2022-08-06T08:45:02;1.52;;;0.60;;
21305;SDS011;10812;51.838;5.838;2022-08-06T08:47:43;1.40;;;0.50;;
21305;SDS011;10812;51.838;5.838;2022-08-06T08:50:21;1.70;;;0.75;;
21305;SDS011;10812;51.838;5.838;2022-08-06T08:52:54;0.80;;;0.60;;
21305;SDS011;10812;51.838;5.838;2022-08-06T08:55:25;3.58;;;0.98;;
21305;SDS011;10812;51.838;5.838;2022-08-06T08:58:14;2.83;;;0.80;;
21305;SDS011;10812;51.838;5.838;2022-08-06T09:01:04;2.88;;;0.75;;
21305;SDS011;10812;51.838;5.838;2022-08-06T09:03:55;1.58;;;0.60;;
21305;SDS011;10812;51.838;5.838;2022-08-06T09:06:27;1.67;;;0.65;;
21305;SDS011;10812;51.838;5.838;2022-08-06T09:08:58;1.35;;;0.50;;
21305;SDS011;10812;51.838;5.838;2022-08-06T09:11:30;0.60;;;0.47;;
21305;SDS011;10812;51.838;5.838;2022-08-06T09:14:19;2.38;;;0.65;;
21305;SDS011;10812;51.838;5.838;2022-08-06T09:16:58;1.10;;;0.60;;
21305;SDS011;10812;51.838;5.838;2022-08-06T09:19:28;2.10;;;0.65;;
21305;SDS011;10812;51.838;5.838;2022-08-06T09:22:04;1.42;;;0.47;;
21305;SDS011;10812;51.838;5.838;2022-08-06T09:24:34;3.20;;;0.90;;
21305;SDS011;10812;51.838;5.838;2022-08-06T09:42:40;3.17;;;0.77;;
21305;SDS011;10812;51.838;5.838;2022-08-06T09:45:10;1.42;;;0.70;;
21305;SDS011;10812;51.838;5.838;2022-08-06T09:47:43;1.40;;;0.70;;
21305;SDS011;10812;51.838;5.838;2022-08-06T09:50:34;2.85;;;0.60;;
21305;SDS011;10812;51.838;5.838;2022-08-06T09:53:08;2.15;;;0.55;;
21305;SDS011;10812;51.838;5.838;2022-08-06T09:55:40;0.60;;;0.50;;
21305;SDS011;10812;51.838;5.838;2022-08-06T09:58:11;2.33;;;1.00;;
21305;SDS011;10812;51.838;5.838;2022-08-06T10:00:43;2.55;;;0.90;;
21305;SDS011;10812;51.838;5.838;2022-08-06T10:03:16;0.70;;;0.52;;
21305;SDS011;10812;51.838;5.838;2022-08-06T10:06:05;1.27;;;0.68;;
21305;SDS011;10812;51.838;5.838;2022-08-06T10:08:39;1.63;;;0.68;;
21305;SDS011;10812;51.838;5.838;2022-08-06T10:11:11;0.50;;;0.50;;
21305;SDS011;10812;51.838;5.838;2022-08-06T10:13:46;1.33;;;0.95;;
21305;SDS011;10812;51.838;5.838;2022-08-06T10:16:15;2.72;;;0.68;;
21305;SDS011;10812;51.838;5.838;2022-08-06T10:18:47;4.07;;;0.70;;
21305;SDS011;10812;51.838;5.838;2022-08-06T10:21:24;0.60;;;0.60;;
21305;SDS011;10812;51.838;5.838;2022-08-06T10:24:06;1.00;;;0.70;;
21305;SDS011;10812;51.838;5.838;2022-08-06T10:26:35;1.70;;;0.70;;
21305;SDS011;10812;51.838;5.838;2022-08-06T10:29:11;1.00;;;0.65;;
21305;SDS011;10812;51.838;5.838;2022-08-06T10:31:42;1.63;;;0.60;;
21305;SDS011;10812;51.838;5.838;2022-08-06T10:34:20;1.88;;;0.70;;
21305;SDS011;10812;51.838;5.838;2022-08-06T10:36:59;0.77;;;0.50;;
21305;SDS011;10812;51.838;5.838;2022-08-06T10:39:51;2.92;;;0.60;;
21305;SDS011;10812;51.838;5.838;2022-08-06T10:42:36;1.85;;;0.40;;
21305;SDS011;10812;51.838;5.838;2022-08-06T10:45:07;2.13;;;0.70;;
21305;SDS011;10812;51.838;5.838;2022-08-06T10:47:39;1.42;;;0.70;;
21305;SDS011;10812;51.838;5.838;2022-08-06T10:50:28;1.20;;;0.90;;
21305;SDS011;10812;51.838;5.838;2022-08-06T10:53:13;0.57;;;0.50;;
21305;SDS011;10812;51.838;5.838;2022-08-06T10:56:04;2.88;;;1.45;;
21305;SDS011;10812;51.838;5.838;2022-08-06T10:58:34;1.33;;;0.63;;
21305;SDS011;10812;51.838;5.838;2022-08-06T11:01:05;3.65;;;1.42;;
21305;SDS011;10812;51.838;5.838;2022-08-06T11:03:56;2.13;;;0.82;;
21305;SDS011;10812;51.838;5.838;2022-08-06T11:06:46;2.75;;;1.80;;
21305;SDS011;10812;51.838;5.838;2022-08-06T11:09:39;23.55;;;14.48;;
21305;SDS011;10812;51.838;5.838;2022-08-06T11:12:35;7.38;;;4.28;;
21305;SDS011;10812;51.838;5.838;2022-08-06T11:15:16;4.97;;;2.92;;
21305;SDS011;10812;51.838;5.838;2022-08-06T11:17:50;2.20;;;1.00;;
21305;SDS011;10812;51.838;5.838;2022-08-06T11:20:33;1.73;;;0.80;;
21305;SDS011;10812;51.838;5.838;2022-08-06T11:23:03;2.60;;;0.80;;
21305;SDS011;10812;51.838;5.838;2022-08-06T11:26:08;1.25;;;0.57;;
21305;SDS011;10812;51.838;5.838;2022-08-06T11:31:31;0.47;;;0.47;;
21305;SDS011;10812;51.838;5.838;2022-08-06T11:34:20;2.13;;;0.63;;
21305;SDS011;10812;51.838;5.838;2022-08-06T11:37:00;2.53;;;0.70;;
21305;SDS011;10812;51.838;5.838;2022-08-06T11:47:30;2.80;;;0.82;;
21305;SDS011;10812;51.838;5.838;2022-08-06T11:50:05;1.00;;;0.40;;
21305;SDS011;10812;51.838;5.838;2022-08-06T11:52:53;4.15;;;0.65;;
21305;SDS011;10812;51.838;5.838;2022-08-06T11:55:22;4.80;;;0.85;;
21305;SDS011;10812;51.838;5.838;2022-08-06T12:00:54;1.60;;;0.73;;
21305;SDS011;10812;51.838;5.838;2022-08-06T12:03:36;1.80;;;0.60;;
21305;SDS011;10812;51.838;5.838;2022-08-06T12:09:05;1.25;;;0.50;;
21305;SDS011;10812;51.838;5.838;2022-08-06T12:11:39;0.40;;;0.30;;
21305;SDS011;10812;51.838;5.838;2022-08-06T12:17:14;3.22;;;1.27;;
21305;SDS011;10812;51.838;5.838;2022-08-06T12:19:43;1.65;;;0.75;;
21305;SDS011;10812;51.838;5.838;2022-08-06T12:22:30;1.05;;;0.55;;
21305;SDS011;10812;51.838;5.838;2022-08-06T12:25:03;4.57;;;0.77;;
21305;SDS011;10812;51.838;5.838;2022-08-06T12:27:37;2.10;;;0.70;;
21305;SDS011;10812;51.838;5.838;2022-08-06T12:30:19;1.30;;;0.60;;
21305;SDS011;10812;51.838;5.838;2022-08-06T12:33:02;1.65;;;0.40;;
21305;SDS011;10812;51.838;5.838;2022-08-06T12:35:47;2.00;;;0.90;;
21305;SDS011;10812;51.838;5.838;2022-08-06T12:38:18;0.57;;;0.50;;
21305;SDS011;10812;51.838;5.838;2022-08-06T12:40:53;2.03;;;0.40;;
21305;SDS011;10812;51.838;5.838;2022-08-06T12:43:23;1.33;;;0.60;;
21305;SDS011;10812;51.838;5.838;2022-08-06T12:46:12;1.55;;;0.55;;
21305;SDS011;10812;51.838;5.838;2022-08-06T12:48:46;0.85;;;0.60;;
21305;SDS011;10812;51.838;5.838;2022-08-06T12:51:16;0.98;;;0.57;;
21305;SDS011;10812;51.838;5.838;2022-08-06T12:53:54;0.95;;;0.40;;
21305;SDS011;10812;51.838;5.838;2022-08-06T12:56:25;2.60;;;0.80;;
21305;SDS011;10812;51.838;5.838;2022-08-06T12:59:02;1.45;;;0.40;;
21305;SDS011;10812;51.838;5.838;2022-08-06T13:01:49;1.30;;;0.65;;
21305;SDS011;10812;51.838;5.838;2022-08-06T13:04:39;1.50;;;0.60;;
21305;SDS011;10812;51.838;5.838;2022-08-06T13:07:12;1.95;;;0.60;;
21305;SDS011;10812;51.838;5.838;2022-08-06T13:09:44;1.75;;;0.43;;
21305;SDS011;10812;51.838;5.838;2022-08-06T13:12:33;2.15;;;0.70;;
21305;SDS011;10812;51.838;5.838;2022-08-06T13:15:21;3.60;;;1.30;;
21305;SDS011;10812;51.838;5.838;2022-08-06T13:18:09;1.55;;;0.95;;
21305;SDS011;10812;51.838;5.838;2022-08-06T13:20:59;6.47;;;1.90;;
21305;SDS011;10812;51.838;5.838;2022-08-06T13:23:29;11.30;;;3.78;;
21305;SDS011;10812;51.838;5.838;2022-08-06T13:26:12;5.05;;;1.33;;
21305;SDS011;10812;51.838;5.838;2022-08-06T13:29:05;1.98;;;0.70;;
21305;SDS011;10812;51.838;5.838;2022-08-06T13:31:59;1.17;;;0.50;;
21305;SDS011;10812;51.838;5.838;2022-08-06T13:34:50;2.30;;;0.85;;
21305;SDS011;10812;51.838;5.838;2022-08-06T13:37:40;3.70;;;0.60;;
21305;SDS011;10812;51.838;5.838;2022-08-06T13:40:36;1.80;;;0.60;;
21305;SDS011;10812;51.838;5.838;2022-08-06T13:43:18;1.15;;;0.68;;
21305;SDS011;10812;51.838;5.838;2022-08-06T13:46:06;1.50;;;0.77;;
21305;SDS011;10812;51.838;5.838;2022-08-06T13:48:41;2.58;;;0.68;;
21305;SDS011;10812;51.838;5.838;2022-08-06T13:51:11;0.88;;;0.52;;
21305;SDS011;10812;51.838;5.838;2022-08-06T13:53:52;2.10;;;0.70;;
21305;SDS011;10812;51.838;5.838;2022-08-06T13:56:22;1.10;;;0.63;;
21305;SDS011;10812;51.838;5.838;2022-08-06T13:58:56;1.35;;;0.65;;
21305;SDS011;10812;51.838;5.838;2022-08-06T14:01:24;1.27;;;0.60;;
21305;SDS011;10812;51.838;5.838;2022-08-06T14:04:11;1.63;;;0.50;;
21305;SDS011;10812;51.838;5.838;2022-08-06T14:06:40;2.03;;;1.10;;
21305;SDS011;10812;51.838;5.838;2022-08-06T14:09:12;0.93;;;0.47;;
21305;SDS011;10812;51.838;5.838;2022-08-06T14:11:46;0.77;;;0.50;;
21305;SDS011;10812;51.838;5.838;2022-08-06T14:14:20;2.22;;;0.65;;
21305;SDS011;10812;51.838;5.838;2022-08-06T14:16:52;0.98;;;0.50;;
21305;SDS011;10812;51.838;5.838;2022-08-06T14:19:21;2.92;;;0.63;;
21305;SDS011;10812;51.838;5.838;2022-08-06T14:22:13;2.05;;;0.90;;
21305;SDS011;10812;51.838;5.838;2022-08-06T14:24:43;1.33;;;0.57;;
21305;SDS011;10812;51.838;5.838;2022-08-06T14:27:19;1.90;;;0.73;;
21305;SDS011;10812;51.838;5.838;2022-08-06T14:29:52;0.50;;;0.35;;
21305;SDS011;10812;51.838;5.838;2022-08-06T14:32:41;2.83;;;0.57;;
21305;SDS011;10812;51.838;5.838;2022-08-06T14:35:13;1.75;;;0.70;;
21305;SDS011;10812;51.838;5.838;2022-08-06T14:37:42;1.40;;;0.88;;
21305;SDS011;10812;51.838;5.838;2022-08-06T14:40:17;1.80;;;0.90;;
21305;SDS011;10812;51.838;5.838;2022-08-06T14:43:27;0.80;;;0.57;;
21305;SDS011;10812;51.838;5.838;2022-08-06T14:46:24;1.02;;;0.63;;
21305;SDS011;10812;51.838;5.838;2022-08-06T14:48:55;2.92;;;0.70;;
21305;SDS011;10812;51.838;5.838;2022-08-06T14:51:26;2.35;;;0.60;;
21305;SDS011;10812;51.838;5.838;2022-08-06T14:54:15;1.20;;;0.68;;
21305;SDS011;10812;51.838;5.838;2022-08-06T14:56:44;2.05;;;0.63;;
21305;SDS011;10812;51.838;5.838;2022-08-06T14:59:18;1.67;;;0.80;;
21305;SDS011;10812;51.838;5.838;2022-08-06T15:01:48;0.93;;;0.60;;
21305;SDS011;10812;51.838;5.838;2022-08-06T15:04:17;3.45;;;1.17;;
21305;SDS011;10812;51.838;5.838;2022-08-06T15:06:50;1.40;;;0.60;;
21305;SDS011;10812;51.838;5.838;2022-08-06T15:09:22;0.52;;;0.52;;
21305;SDS011;10812;51.838;5.838;2022-08-06T15:12:10;2.10;;;0.63;;
21305;SDS011;10812;51.838;5.838;2022-08-06T15:15:00;1.80;;;1.13;;
21305;SDS011;10812;51.838;5.838;2022-08-06T15:17:32;3.13;;;0.98;;
21305;SDS011;10812;51.838;5.838;2022-08-06T15:20:20;1.33;;;0.65;;
21305;SDS011;10812;51.838;5.838;2022-08-06T15:22:51;3.85;;;1.20;;
21305;SDS011;10812;51.838;5.838;2022-08-06T15:25:21;1.73;;;1.05;;
21305;SDS011;10812;51.838;5.838;2022-08-06T15:28:09;1.55;;;0.88;;
21305;SDS011;10812;51.838;5.838;2022-08-06T15:30:39;2.28;;;1.02;;
21305;SDS011;10812;51.838;5.838;2022-08-06T15:33:13;1.98;;;0.70;;
21305;SDS011;10812;51.838;5.838;2022-08-06T15:35:42;2.97;;;0.90;;
21305;SDS011;10812;51.838;5.838;2022-08-06T15:38:24;1.95;;;0.80;;
21305;SDS011;10812;51.838;5.838;2022-08-06T15:40:58;2.85;;;1.10;;
21305;SDS011;10812;51.838;5.838;2022-08-06T15:43:27;4.10;;;1.08;;
21305;SDS011;10812;51.838;5.838;2022-08-06T15:46:10;0.93;;;0.60;;
21305;SDS011;10812;51.838;5.838;2022-08-06T15:48:54;3.00;;;1.45;;
21305;SDS011;10812;51.838;5.838;2022-08-06T15:51:25;1.77;;;0.80;;
21305;SDS011;10812;51.838;5.838;2022-08-06T15:53:57;1.40;;;0.98;;
21305;SDS011;10812;51.838;5.838;2022-08-06T15:56:26;3.55;;;1.02;;
21305;SDS011;10812;51.838;5.838;2022-08-06T15:59:00;1.75;;;0.82;;
21305;SDS011;10812;51.838;5.838;2022-08-06T16:01:36;1.45;;;1.20;;
21305;SDS011;10812;51.838;5.838;2022-08-06T16:04:26;4.57;;;1.25;;
21305;SDS011;10812;51.838;5.838;2022-08-06T16:06:57;2.35;;;1.55;;
21305;SDS011;10812;51.838;5.838;2022-08-06T16:09:26;3.35;;;1.77;;
21305;SDS011;10812;51.838;5.838;2022-08-06T16:11:55;2.42;;;1.20;;
21305;SDS011;10812;51.838;5.838;2022-08-06T16:14:23;1.65;;;1.17;;
21305;SDS011;10812;51.838;5.838;2022-08-06T16:17:04;3.15;;;1.00;;
21305;SDS011;10812;51.838;5.838;2022-08-06T16:19:37;1.00;;;0.80;;
21305;SDS011;10812;51.838;5.838;2022-08-06T16:22:15;2.50;;;1.25;;
21305;SDS011;10812;51.838;5.838;2022-08-06T16:24:44;0.73;;;0.70;;
21305;SDS011;10812;51.838;5.838;2022-08-06T16:27:14;0.90;;;0.80;;
21305;SDS011;10812;51.838;5.838;2022-08-06T16:29:43;2.17;;;1.00;;
21305;SDS011;10812;51.838;5.838;2022-08-06T16:32:13;2.30;;;0.98;;
21305;SDS011;10812;51.838;5.838;2022-08-06T16:34:51;2.70;;;1.27;;
21305;SDS011;10812;51.838;5.838;2022-08-06T16:37:24;2.42;;;1.23;;
21305;SDS011;10812;51.838;5.838;2022-08-06T16:40:13;3.55;;;0.85;;
21305;SDS011;10812;51.838;5.838;2022-08-06T16:42:42;1.02;;;0.60;;
21305;SDS011;10812;51.838;5.838;2022-08-06T16:45:14;1.13;;;0.70;;
21305;SDS011;10812;51.838;5.838;2022-08-06T16:47:48;1.55;;;0.60;;
21305;SDS011;10812;51.838;5.838;2022-08-06T16:50:38;1.63;;;0.70;;
21305;SDS011;10812;51.838;5.838;2022-08-06T16:53:07;1.25;;;0.98;;